Item Display Status Humidity-temperature Sensor

Elevation Above Sea Level: 3 m

 

Deployed Sensor

  • Serial Number: 20370381
  • NDBC Property Number: 43917
  • Start Date: 1/10/2023 (07:06:57 Z)
  • End Date: Currently Active
Relative Humidity [%]     6 entries per hour
Showing data from 6/21/2024 (06:00:00 Z) to 6/20/2024 (00:00:01 Z)
Previous Next [ Day | 3-Days | 7-Days ]
First Last
Prev [ Day | 3-Days | 7-Days ] Next
First Last

Start Time:     :
End Time:     :     
Time (in GMT) :00 :50 :40 :30 :20 :10
Previous Next [ Day | 3-Days | 7-Days ]
First Last
Prev [ Day | 3-Days | 7-Days ] Next
First Last


123 => good data
MM => data is determined as missing
-- => data not received/configured
Back to Top Back to Top
6/21/2024 06:00 to 5:10 82.89 82.91 82.87 83.98 81.12 79.82
6/21/2024 05:00 to 4:10 81.41 79.04 82.02 83.26 79.88 79.61
6/21/2024 04:00 to 3:10 80.87 80.21 81.76 81.76 81.63 81.55
6/21/2024 03:00 to 2:10 81.43 81.08 81.18 79.39 84.87 81.39
6/21/2024 02:00 to 1:10 78.50 77.37 81.01 83.98 82.91 85.87
6/21/2024 01:00 to 0:10 80.19 80.67 79.24 79.20 78.36 79.12
6/21/2024 00:00 to 23:10 78.85 78.22 77.41 78.11 78.75 81.69
6/20/2024 23:00 to 22:10 80.99 81.78 84.72 81.88 83.55 82.74
6/20/2024 22:00 to 21:10 80.01 80.95 79.92 78.65 81.01 79.74
6/20/2024 21:00 to 20:10 80.58 80.60 80.36 80.15 80.66 80.05
6/20/2024 20:00 to 19:10 78.03 76.69 76.46 77.80 77.47 75.17
6/20/2024 19:00 to 18:10 77.51 77.68 76.40 78.83 77.88 77.58
6/20/2024 18:00 to 17:10 78.71 77.78 78.40 80.03 79.10 76.83
6/20/2024 17:00 to 16:10 75.99 76.18 75.78 77.54 81.78 81.34
6/20/2024 16:00 to 15:10 82.50 80.75 83.47 83.20 76.24 77.78
6/20/2024 15:00 to 14:10 80.31 81.57 81.18 77.76 77.74 76.63
6/20/2024 14:00 to 13:10 71.75 74.57 76.55 78.52 79.16 79.99
6/20/2024 13:00 to 12:10 79.99 83.86 86.76 83.96 89.15 90.28
6/20/2024 12:00 to 11:10 86.39 80.73 78.11 76.92 78.36 77.23
6/20/2024 11:00 to 10:10 79.78 80.38 78.73 79.99 79.55 78.89
6/20/2024 10:00 to 9:10 79.45 77.76 75.62 77.82 79.00 78.92
6/20/2024 09:00 to 8:10 77.54 79.20 79.04 77.12 81.22 81.51
6/20/2024 08:00 to 7:10 80.69 81.01 79.04 79.24 80.75 81.43
6/20/2024 07:00 to 6:10 80.48 82.83 81.84 83.09 81.57 84.06
6/20/2024 06:00 to 5:10 84.62 79.66 80.31 79.78 80.67 79.41
6/20/2024 05:00 to 4:10 77.99 78.71 79.53 80.79 78.69 79.24
6/20/2024 04:00 to 3:10 80.13 79.16 79.92 79.12 80.31 79.26
6/20/2024 03:00 to 2:10 79.18 80.75 79.20 80.31 78.36 78.52
6/20/2024 02:00 to 1:10 78.05 78.83 80.01 79.53 81.28 81.01
6/20/2024 01:00 to 0:10 79.49 78.50 78.61 78.94 79.53 80.17

 

 

 

Air Temperature [°C]     6 entries per hour
Showing data from 6/21/2024 (06:00:00 Z) to 6/20/2024 (00:00:01 Z)
Previous Next [ Day | 3-Days | 7-Days ]
First Last
Prev [ Day | 3-Days | 7-Days ] Next
First Last

Start Time:     :
End Time:     :     
Time (in GMT) :00 :50 :40 :30 :20 :10
Previous Next [ Day | 3-Days | 7-Days ]
First Last
Prev [ Day | 3-Days | 7-Days ] Next
First Last


123 => good data
MM => data is determined as missing
-- => data not received/configured
Back to Top Back to Top
6/21/2024 06:00 to 5:10 26.21 26.48 26.42 26.53 26.79 26.79
6/21/2024 05:00 to 4:10 26.92 26.74 26.69 26.52 26.69 26.72
6/21/2024 04:00 to 3:10 26.66 26.77 26.68 26.81 26.68 26.68
6/21/2024 03:00 to 2:10 26.64 26.58 26.84 26.66 26.64 26.89
6/21/2024 02:00 to 1:10 26.77 26.67 26.36 26.31 26.36 26.25
6/21/2024 01:00 to 0:10 26.64 26.69 26.75 26.73 26.77 26.78
6/21/2024 00:00 to 23:10 26.69 26.74 26.59 26.63 26.62 26.52
6/20/2024 23:00 to 22:10 26.64 26.34 26.34 26.31 26.43 26.55
6/20/2024 22:00 to 21:10 26.53 26.79 26.80 26.67 26.84 26.78
6/20/2024 21:00 to 20:10 26.69 26.64 26.63 26.49 26.70 26.79
6/20/2024 20:00 to 19:10 26.77 26.84 26.85 26.89 26.86 26.72
6/20/2024 19:00 to 18:10 26.80 26.78 26.96 26.93 26.91 26.92
6/20/2024 18:00 to 17:10 26.90 26.76 26.81 26.99 27.02 26.82
6/20/2024 17:00 to 16:10 26.88 27.03 26.87 26.56 26.36 26.37
6/20/2024 16:00 to 15:10 25.84 26.53 25.99 26.54 26.78 26.65
6/20/2024 15:00 to 14:10 26.55 26.63 26.60 26.59 26.82 26.83
6/20/2024 14:00 to 13:10 26.93 26.86 26.76 26.53 26.43 26.34
6/20/2024 13:00 to 12:10 26.26 26.08 25.87 25.93 25.27 25.16
6/20/2024 12:00 to 11:10 25.96 26.47 26.57 26.51 26.60 26.55
6/20/2024 11:00 to 10:10 26.46 26.63 26.45 26.50 26.50 26.49
6/20/2024 10:00 to 9:10 26.65 26.38 26.65 26.51 26.49 26.57
6/20/2024 09:00 to 8:10 26.59 26.60 26.67 26.65 26.70 26.76
6/20/2024 08:00 to 7:10 26.67 26.77 26.66 26.56 26.46 26.48
6/20/2024 07:00 to 6:10 26.52 26.29 26.56 26.59 26.51 26.47
6/20/2024 06:00 to 5:10 26.64 26.86 26.85 26.73 26.88 26.84
6/20/2024 05:00 to 4:10 26.85 26.89 26.93 26.93 26.81 26.72
6/20/2024 04:00 to 3:10 26.89 26.89 26.92 26.79 26.88 26.95
6/20/2024 03:00 to 2:10 26.90 26.94 26.77 26.99 26.76 26.91
6/20/2024 02:00 to 1:10 26.83 26.87 26.94 26.89 26.96 26.74
6/20/2024 01:00 to 0:10 26.92 26.87 26.81 26.76 26.76 26.84